Time;durP1;ratioP1;P1;durP2;ratioP2;P2;SDS_P1;SDS_P2;PMS_P1;PMS_P2;Temp;Humidity;BMP_temperature;BMP_pressure;BME280_temperature;BME280_humidity;BME280_pressure;Samples;Min_cycle;Max_cycle;Signal;HPM_P1;HPM_P2
2022/01/17 00:00:15;;;;;;;0.10;0.10;;;4.30;99.90;;;;;;5092278;28;20492;-71
2022/01/17 00:02:41;;;;;;;0.10;0.10;;;4.30;99.90;;;;;;5110359;28;20020;-69
2022/01/17 00:05:08;;;;;;;0.00;0.00;;;4.30;99.90;;;;;;5074666;28;20103;-70
2022/01/17 00:07:35;;;;;;;0.00;0.00;;;4.30;99.90;;;;;;5091430;28;20036;-70
2022/01/17 00:10:00;;;;;;;0.08;0.08;;;4.40;99.90;;;;;;5085412;28;20474;-70
2022/01/17 00:12:28;;;;;;;0.65;0.65;;;4.40;99.90;;;;;;5088639;28;20157;-69
2022/01/17 00:14:56;;;;;;;0.10;0.10;;;4.40;99.90;;;;;;5087263;28;20101;-69
2022/01/17 00:19:52;;;;;;;0.10;0.10;;;4.40;99.90;;;;;;5092220;28;20410;-69
2022/01/17 00:22:20;;;;;;;0.30;0.30;;;4.40;99.90;;;;;;5079659;28;20048;-69
2022/01/17 00:24:47;;;;;;;0.10;0.10;;;4.50;99.90;;;;;;5056787;28;20105;-69
2022/01/17 00:27:13;;;;;;;0.10;0.10;;;4.50;99.90;;;;;;5085296;28;20050;-71
2022/01/17 00:29:39;;;;;;;0.10;0.10;;;4.60;99.90;;;;;;5071583;28;20051;-69
2022/01/17 00:32:05;;;;;;;0.32;0.32;;;4.60;99.90;;;;;;5090691;28;20111;-70
2022/01/17 00:34:31;;;;;;;0.10;0.10;;;4.60;99.90;;;;;;5091749;28;20032;-70
2022/01/17 00:36:56;;;;;;;0.10;0.10;;;4.60;99.90;;;;;;5091585;28;20365;-70
2022/01/17 00:39:22;;;;;;;0.10;0.10;;;4.50;99.90;;;;;;5086156;28;20020;-70
2022/01/17 00:41:48;;;;;;;0.20;0.20;;;4.50;99.90;;;;;;5091328;28;20050;-70
2022/01/17 00:44:21;;;;;;;0.10;0.10;;;4.60;99.90;;;;;;5091463;28;20039;-70
2022/01/17 00:46:47;;;;;;;0.10;0.10;;;4.60;99.90;;;;;;5081296;28;20671;-68
2022/01/17 00:49:12;;;;;;;0.10;0.10;;;4.60;99.90;;;;;;5081947;28;20059;-70
2022/01/17 00:51:38;;;;;;;0.00;0.00;;;4.60;99.90;;;;;;5091384;28;20431;-68
2022/01/17 00:54:04;;;;;;;0.10;0.10;;;4.60;99.90;;;;;;5090783;28;20059;-69
2022/01/17 00:56:29;;;;;;;0.00;0.00;;;4.60;99.90;;;;;;5088725;28;20032;-69
2022/01/17 00:58:55;;;;;;;0.10;0.10;;;4.50;99.90;;;;;;5091494;28;20045;-69
2022/01/17 01:01:21;;;;;;;0.10;0.10;;;4.50;99.90;;;;;;5091249;28;20154;-70
2022/01/17 01:03:47;;;;;;;0.65;0.65;;;4.40;99.90;;;;;;5090862;28;20122;-70
2022/01/17 01:06:14;;;;;;;0.05;0.05;;;4.50;99.90;;;;;;5083101;28;20024;-70
2022/01/17 01:08:39;;;;;;;1.20;1.20;;;4.50;99.90;;;;;;5091343;28;20249;-70
2022/01/17 01:11:05;;;;;;;0.90;0.90;;;4.50;99.90;;;;;;5090070;28;20504;-69
2022/01/17 01:13:31;;;;;;;0.17;0.17;;;4.50;99.90;;;;;;5090689;28;20028;-69
2022/01/17 01:16:11;;;;;;;0.10;0.10;;;4.50;99.90;;;;;;5074660;28;20032;-69
2022/01/17 01:18:55;;;;;;;0.10;0.10;;;4.50;99.90;;;;;;5091143;28;20027;-69
2022/01/17 01:21:44;;;;;;;0.10;0.10;;;4.40;99.90;;;;;;5090057;28;20097;-70
2022/01/17 01:29:45;;;;;;;0.10;0.10;;;4.30;99.90;;;;;;5091327;28;20035;-70
2022/01/17 01:32:11;;;;;;;0.10;0.10;;;4.10;99.90;;;;;;5090537;28;20036;-69
2022/01/17 01:34:41;;;;;;;0.22;0.22;;;4.10;99.90;;;;;;5070522;28;20025;-69
2022/01/17 01:37:07;;;;;;;0.10;0.10;;;4.00;99.90;;;;;;5080157;28;20059;-68
2022/01/17 01:39:34;;;;;;;0.03;0.03;;;4.00;99.90;;;;;;5090533;28;20077;-68
2022/01/17 01:42:00;;;;;;;0.10;0.10;;;4.00;99.90;;;;;;5079963;28;20032;-70
2022/01/17 01:44:27;;;;;;;0.40;0.40;;;4.00;99.90;;;;;;5090557;28;20024;-68
2022/01/17 01:46:54;;;;;;;0.10;0.10;;;4.00;99.90;;;;;;5090486;28;20093;-69
2022/01/17 01:49:21;;;;;;;0.03;0.03;;;4.00;99.90;;;;;;5086122;28;20032;-69
2022/01/17 01:51:47;;;;;;;0.10;0.10;;;4.00;99.90;;;;;;5079425;28;20153;-70
2022/01/17 01:54:14;;;;;;;0.15;0.15;;;4.00;99.90;;;;;;5072108;28;20024;-70
2022/01/17 01:56:44;;;;;;;0.00;0.00;;;4.00;99.90;;;;;;5090043;28;20031;-70
2022/01/17 01:59:11;;;;;;;0.10;0.10;;;4.00;99.90;;;;;;5083513;28;20051;-69
2022/01/17 02:01:37;;;;;;;0.43;0.43;;;4.00;99.90;;;;;;5082003;28;20024;-70
2022/01/17 02:04:04;;;;;;;0.35;0.35;;;4.00;99.90;;;;;;5089061;28;20035;-68
2022/01/17 02:06:32;;;;;;;0.10;0.10;;;4.00;99.90;;;;;;5090035;28;20056;-69
2022/01/17 02:08:58;;;;;;;0.10;0.10;;;4.10;99.90;;;;;;5082044;28;20024;-70
2022/01/17 02:11:24;;;;;;;0.10;0.10;;;4.10;99.90;;;;;;5071156;28;20090;-70
2022/01/17 02:13:50;;;;;;;0.40;0.40;;;4.10;99.90;;;;;;5088335;28;20039;-70
2022/01/17 02:16:16;;;;;;;0.10;0.10;;;4.10;99.90;;;;;;5087336;28;20032;-70
2022/01/17 02:18:45;;;;;;;0.10;0.10;;;4.10;99.90;;;;;;5085179;28;20099;-70
2022/01/17 02:23:42;;;;;;;1.33;1.23;;;4.20;99.90;;;;;;5089035;28;20035;-70
2022/01/17 02:26:07;;;;;;;0.10;0.10;;;4.10;99.90;;;;;;5080702;28;20032;-69
2022/01/17 02:28:33;;;;;;;0.90;0.90;;;4.20;99.90;;;;;;5083591;28;20020;-70
2022/01/17 02:31:06;;;;;;;1.50;1.00;;;4.10;99.90;;;;;;5089554;28;20036;-70
2022/01/17 02:33:36;;;;;;;0.30;0.30;;;4.10;99.90;;;;;;5087649;28;20529;-69
2022/01/17 02:36:02;;;;;;;0.20;0.20;;;4.10;99.90;;;;;;5075089;28;20457;-69
2022/01/17 02:38:28;;;;;;;0.10;0.10;;;4.10;99.90;;;;;;5069624;28;20120;-70
2022/01/17 02:40:54;;;;;;;0.10;0.10;;;4.10;99.90;;;;;;5069384;28;20074;-70
2022/01/17 02:43:21;;;;;;;0.75;0.75;;;4.10;99.90;;;;;;5072531;28;20048;-69
2022/01/17 02:48:17;;;;;;;0.10;0.10;;;4.20;99.90;;;;;;5087371;28;20433;-69
2022/01/17 02:50:42;;;;;;;0.10;0.10;;;4.20;99.90;;;;;;5094509;28;20111;-69
2022/01/17 02:53:09;;;;;;;0.10;0.10;;;4.20;99.90;;;;;;5068956;28;20120;-70
2022/01/17 02:55:35;;;;;;;0.10;0.10;;;4.20;99.90;;;;;;5069585;28;20494;-70
2022/01/17 02:58:01;;;;;;;0.10;0.10;;;4.20;99.90;;;;;;5083964;28;20055;-69
2022/01/17 03:00:27;;;;;;;0.98;0.98;;;4.20;99.90;;;;;;5075213;28;20482;-70
2022/01/17 03:02:53;;;;;;;0.10;0.10;;;4.10;99.90;;;;;;5077011;28;20023;-69
2022/01/17 03:05:20;;;;;;;0.10;0.10;;;4.10;99.90;;;;;;5089371;28;20016;-69
2022/01/17 03:07:47;;;;;;;0.10;0.10;;;4.20;99.90;;;;;;5078225;28;20124;-70
2022/01/17 03:10:28;;;;;;;1.75;1.65;;;4.20;99.90;;;;;;5080554;28;20020;-70
2022/01/17 03:13:04;;;;;;;0.10;0.10;;;4.20;99.90;;;;;;5080091;28;20099;-70
2022/01/17 03:15:30;;;;;;;0.10;0.10;;;4.20;99.90;;;;;;5088990;28;20052;-70
2022/01/17 03:17:55;;;;;;;0.10;0.10;;;4.20;99.90;;;;;;5086371;28;20059;-70
2022/01/17 03:20:21;;;;;;;0.10;0.10;;;4.20;99.90;;;;;;5068849;28;20033;-70
2022/01/17 03:22:47;;;;;;;0.20;0.20;;;4.30;99.90;;;;;;5079892;28;20035;-70
2022/01/17 03:25:12;;;;;;;0.10;0.10;;;4.30;99.90;;;;;;5088928;28;20024;-70
2022/01/17 03:27:38;;;;;;;0.10;0.10;;;4.40;99.90;;;;;;5077132;28;20513;-69
2022/01/17 03:30:05;;;;;;;0.10;0.10;;;4.50;99.90;;;;;;5088734;28;20501;-70
2022/01/17 03:32:31;;;;;;;0.17;0.17;;;4.50;99.90;;;;;;5088548;28;20020;-69
2022/01/17 03:34:56;;;;;;;0.10;0.10;;;4.50;99.90;;;;;;5087429;28;20626;-70
2022/01/17 03:37:22;;;;;;;0.30;0.30;;;4.50;99.90;;;;;;5069032;28;20028;-70
2022/01/17 03:39:48;;;;;;;0.10;0.10;;;4.50;99.90;;;;;;5068932;28;20024;-69
2022/01/17 03:42:15;;;;;;;0.10;0.10;;;4.60;99.90;;;;;;5074116;28;20016;-70
2022/01/17 03:44:40;;;;;;;0.10;0.10;;;4.50;99.90;;;;;;5088702;28;20115;-70
2022/01/17 03:47:06;;;;;;;0.10;0.10;;;4.60;99.90;;;;;;5106257;28;20576;-69
2022/01/17 03:49:32;;;;;;;0.10;0.10;;;4.50;99.90;;;;;;5113141;28;20114;-69
2022/01/17 03:51:57;;;;;;;0.00;0.00;;;4.50;99.90;;;;;;5093106;28;20032;-69
2022/01/17 03:54:23;;;;;;;0.10;0.10;;;4.50;99.90;;;;;;5092466;28;20481;-69
2022/01/17 03:56:49;;;;;;;0.10;0.10;;;4.50;99.90;;;;;;5092404;28;20056;-70
2022/01/17 03:59:14;;;;;;;0.10;0.10;;;4.60;99.90;;;;;;5092022;28;20420;-69
2022/01/17 04:01:40;;;;;;;0.10;0.10;;;4.60;99.90;;;;;;5074921;28;20028;-70
2022/01/17 04:04:06;;;;;;;0.10;0.10;;;4.60;99.90;;;;;;5091796;28;20074;-69
2022/01/17 04:06:32;;;;;;;0.57;0.57;;;4.60;99.90;;;;;;5092418;28;20074;-70
2022/01/17 04:08:58;;;;;;;0.10;0.10;;;4.60;99.90;;;;;;5083274;28;20032;-70
2022/01/17 04:11:24;;;;;;;0.10;0.10;;;4.50;99.90;;;;;;5088737;28;20032;-69
2022/01/17 04:13:50;;;;;;;0.08;0.08;;;4.60;99.90;;;;;;5091578;28;20085;-70
2022/01/17 04:16:15;;;;;;;0.10;0.10;;;4.50;99.90;;;;;;5088543;28;20059;-70
2022/01/17 04:18:42;;;;;;;0.00;0.00;;;4.60;99.90;;;;;;5077213;28;20030;-70
2022/01/17 04:21:08;;;;;;;0.10;0.10;;;4.60;99.90;;;;;;5092208;28;20032;-70
2022/01/17 04:23:34;;;;;;;0.10;0.10;;;4.60;99.90;;;;;;5090102;28;20028;-69
2022/01/17 04:25:59;;;;;;;0.10;0.10;;;4.60;99.90;;;;;;5071897;28;20398;-70
2022/01/17 04:28:25;;;;;;;0.10;0.10;;;4.60;99.90;;;;;;5084324;28;20108;-70
2022/01/17 04:30:51;;;;;;;0.10;0.10;;;4.60;99.90;;;;;;5091617;28;20099;-69
2022/01/17 04:33:17;;;;;;;0.10;0.10;;;4.50;99.90;;;;;;5080878;28;20066;-69
2022/01/17 04:35:44;;;;;;;0.10;0.10;;;4.50;99.90;;;;;;5071701;28;20497;-69
2022/01/17 04:38:18;;;;;;;0.10;0.10;;;4.30;99.90;;;;;;5071422;28;20020;-70
2022/01/17 04:40:50;;;;;;;0.10;0.10;;;4.30;99.90;;;;;;5080435;28;20056;-70
2022/01/17 04:43:33;;;;;;;0.20;0.20;;;4.30;99.90;;;;;;5091227;28;20020;-70
2022/01/17 04:45:59;;;;;;;0.10;0.10;;;4.20;99.90;;;;;;5091442;28;20036;-70
2022/01/17 04:48:26;;;;;;;0.00;0.00;;;4.20;99.90;;;;;;5089918;28;20020;-70
2022/01/17 04:50:52;;;;;;;0.10;0.10;;;4.30;99.90;;;;;;5085624;28;20115;-69
2022/01/17 04:53:20;;;;;;;0.10;0.10;;;4.30;99.90;;;;;;5090918;28;20040;-71
2022/01/17 04:55:47;;;;;;;0.55;0.55;;;4.30;99.90;;;;;;5089750;28;20028;-70
2022/01/17 04:58:13;;;;;;;0.10;0.10;;;4.30;99.90;;;;;;5087049;28;20044;-70
2022/01/17 05:00:46;;;;;;;0.10;0.10;;;4.30;99.90;;;;;;5091245;28;20035;-70
2022/01/17 05:03:12;;;;;;;0.17;0.17;;;4.30;99.90;;;;;;5090845;28;20021;-70
2022/01/17 05:05:38;;;;;;;0.63;0.63;;;4.30;99.90;;;;;;5079602;28;20817;-70
2022/01/17 05:08:04;;;;;;;0.20;0.20;;;4.30;99.90;;;;;;5091032;28;20161;-69
2022/01/17 05:10:30;;;;;;;0.40;0.40;;;4.30;99.90;;;;;;5104969;22;20024;-68
2022/01/17 05:12:55;;;;;;;0.10;0.10;;;4.30;99.90;;;;;;5064978;28;20474;-69
2022/01/17 05:15:48;;;;;;;0.17;0.17;;;4.30;99.90;;;;;;5069301;28;20162;-69
2022/01/17 05:20:36;;;;;;;0.10;0.10;;;4.40;99.90;;;;;;5069930;28;20016;-70
2022/01/17 05:23:02;;;;;;;0.10;0.10;;;4.30;99.90;;;;;;5050106;28;20124;-70
2022/01/17 05:25:27;;;;;;;0.00;0.00;;;4.30;99.90;;;;;;5050491;28;20107;-69
2022/01/17 05:27:53;;;;;;;0.47;0.47;;;4.30;99.90;;;;;;5052818;28;20048;-69
2022/01/17 05:30:21;;;;;;;0.10;0.10;;;4.40;99.90;;;;;;5068925;28;20047;-69
2022/01/17 05:32:48;;;;;;;0.10;0.10;;;4.30;99.90;;;;;;5051225;28;20473;-69
2022/01/17 05:35:15;;;;;;;0.10;0.10;;;4.40;99.90;;;;;;5070072;28;20032;-69
2022/01/17 05:37:41;;;;;;;0.10;0.10;;;4.40;99.90;;;;;;5069487;28;20025;-70
2022/01/17 05:40:09;;;;;;;0.10;0.10;;;4.30;99.90;;;;;;5064698;28;20084;-70
2022/01/17 05:42:34;;;;;;;0.10;0.10;;;4.30;99.90;;;;;;5069849;28;20144;-70
2022/01/17 05:45:00;;;;;;;0.10;0.10;;;4.30;99.90;;;;;;5069866;28;20471;-69
2022/01/17 05:47:26;;;;;;;0.10;0.10;;;4.30;99.90;;;;;;5067810;28;20032;-69
2022/01/17 05:49:52;;;;;;;0.20;0.20;;;4.30;99.90;;;;;;5072479;28;20051;-70
2022/01/17 05:52:17;;;;;;;0.03;0.03;;;4.30;99.90;;;;;;5069367;28;20044;-70
2022/01/17 05:54:44;;;;;;;0.10;0.10;;;4.30;99.90;;;;;;5051684;28;20035;-70
2022/01/17 05:57:10;;;;;;;0.10;0.10;;;4.40;99.90;;;;;;5065316;28;20033;-70
2022/01/17 05:59:36;;;;;;;0.10;0.10;;;4.40;99.90;;;;;;5062514;28;20020;-69
2022/01/17 06:02:01;;;;;;;0.10;0.10;;;4.40;99.90;;;;;;5050585;28;20440;-70
2022/01/17 06:04:27;;;;;;;0.20;0.20;;;4.40;99.90;;;;;;5043048;28;20082;-69
2022/01/17 06:06:53;;;;;;;0.10;0.10;;;4.40;99.90;;;;;;5050053;28;20075;-70
2022/01/17 06:09:18;;;;;;;0.10;0.10;;;4.40;99.90;;;;;;5059188;28;20037;-70
2022/01/17 06:11:44;;;;;;;0.10;0.10;;;4.40;99.90;;;;;;5049635;28;20036;-69
2022/01/17 06:14:15;;;;;;;0.10;0.10;;;4.40;99.90;;;;;;5056187;28;20419;-70
2022/01/17 06:16:40;;;;;;;0.10;0.10;;;3.10;99.90;;;;;;5049585;28;20056;-70
2022/01/17 06:19:06;;;;;;;0.20;0.20;;;4.50;99.90;;;;;;5057824;28;20055;-70
2022/01/17 06:21:32;;;;;;;0.10;0.10;;;4.50;99.90;;;;;;5069609;28;20102;-71
2022/01/17 06:24:00;;;;;;;0.10;0.10;;;4.50;99.90;;;;;;5049833;28;20056;-70
2022/01/17 06:26:26;;;;;;;0.10;0.10;;;4.50;99.90;;;;;;5049436;28;20056;-70
2022/01/17 06:28:51;;;;;;;0.10;0.10;;;4.50;99.90;;;;;;5037722;28;20423;-70
2022/01/17 06:31:18;;;;;;;0.10;0.10;;;4.50;99.90;;;;;;5069298;28;20133;-70
2022/01/17 06:33:44;;;;;;;0.10;0.10;;;4.50;99.90;;;;;;5067845;28;20494;-70
2022/01/17 06:36:10;;;;;;;0.10;0.10;;;4.60;99.90;;;;;;5069037;28;20060;-69
2022/01/17 06:38:36;;;;;;;0.10;0.10;;;4.60;99.90;;;;;;5069320;28;20493;-70
2022/01/17 06:41:01;;;;;;;0.10;0.10;;;4.60;99.90;;;;;;5069947;28;20036;-69
2022/01/17 06:43:27;;;;;;;0.10;0.10;;;4.60;99.90;;;;;;5059115;28;20470;-69
2022/01/17 06:45:52;;;;;;;0.10;0.10;;;4.60;99.90;;;;;;5069033;28;20048;-69
2022/01/17 06:48:18;;;;;;;0.10;0.10;;;4.60;99.90;;;;;;5063548;28;20029;-69
2022/01/17 06:50:44;;;;;;;0.10;0.10;;;4.60;99.90;;;;;;5069000;28;20039;-70
2022/01/17 06:53:09;;;;;;;0.10;0.10;;;4.70;99.90;;;;;;5053036;28;20123;-69
2022/01/17 06:55:35;;;;;;;0.22;0.22;;;4.70;99.90;;;;;;5048887;28;20028;-70
2022/01/17 06:58:01;;;;;;;0.43;0.43;;;4.60;99.90;;;;;;5050053;28;20020;-70
2022/01/17 07:00:26;;;;;;;0.10;0.10;;;4.60;99.90;;;;;;5065231;28;20017;-71
2022/01/17 07:02:52;;;;;;;0.10;0.10;;;4.70;99.90;;;;;;5066120;28;20086;-70
2022/01/17 07:05:18;;;;;;;0.10;0.10;;;4.60;99.90;;;;;;5059751;28;20099;-68
2022/01/17 07:07:44;;;;;;;0.10;0.10;;;4.70;99.90;;;;;;5059314;28;20036;-69
2022/01/17 07:10:10;;;;;;;0.10;0.10;;;4.70;99.90;;;;;;5065082;28;20066;-69
2022/01/17 07:12:36;;;;;;;0.10;0.10;;;4.70;99.90;;;;;;5057132;28;20033;-71
2022/01/17 07:15:07;;;;;;;0.10;0.10;;;4.70;99.90;;;;;;5074220;28;20028;-70
2022/01/17 07:17:34;;;;;;;0.32;0.32;;;4.60;99.90;;;;;;5059124;28;20029;-70
2022/01/17 07:19:59;;;;;;;0.10;0.10;;;4.70;99.90;;;;;;5069286;28;20033;-69
2022/01/17 07:22:27;;;;;;;0.20;0.20;;;4.70;99.90;;;;;;5063814;28;20033;-69
2022/01/17 07:24:54;;;;;;;8.05;4.85;;;4.70;99.90;;;;;;5055071;28;20140;-69
2022/01/17 07:27:20;;;;;;;0.05;0.05;;;4.70;99.90;;;;;;5069962;28;20020;-69
2022/01/17 07:29:45;;;;;;;0.10;0.10;;;4.70;99.90;;;;;;5068059;28;20470;-68
2022/01/17 07:32:11;;;;;;;0.10;0.10;;;4.70;99.90;;;;;;5072517;28;20096;-71
2022/01/17 07:34:36;;;;;;;0.10;0.10;;;4.70;99.90;;;;;;5068240;28;20037;-69
2022/01/17 07:37:03;;;;;;;0.10;0.10;;;4.70;99.90;;;;;;5072713;28;20036;-70
2022/01/17 07:39:29;;;;;;;0.10;0.10;;;4.80;99.90;;;;;;5067234;28;20024;-70
2022/01/17 07:41:55;;;;;;;2.03;1.85;;;4.80;99.90;;;;;;5067968;28;20051;-68
2022/01/17 07:44:23;;;;;;;0.10;0.10;;;4.80;99.90;;;;;;5067905;28;20121;-69
2022/01/17 07:46:54;;;;;;;0.10;0.10;;;4.90;99.90;;;;;;5062642;28;20027;-69
2022/01/17 07:49:21;;;;;;;0.10;0.10;;;4.80;99.90;;;;;;5069309;28;20020;-70
2022/01/17 07:51:56;;;;;;;0.10;0.10;;;4.80;99.90;;;;;;5071759;28;20028;-68
2022/01/17 07:54:23;;;;;;;0.10;0.10;;;4.80;99.90;;;;;;5066241;28;20025;-68
2022/01/17 07:56:49;;;;;;;0.10;0.10;;;4.80;99.90;;;;;;5061015;28;20508;-70
2022/01/17 07:59:15;;;;;;;0.10;0.10;;;4.80;99.90;;;;;;5068205;28;20125;-68
2022/01/17 08:01:42;;;;;;;1.85;1.75;;;4.80;99.90;;;;;;5064987;28;20479;-69
2022/01/17 08:04:09;;;;;;;0.10;0.10;;;4.90;99.90;;;;;;5068946;28;20012;-68
2022/01/17 08:06:38;;;;;;;0.10;0.10;;;4.90;99.90;;;;;;5068449;28;20060;-70
2022/01/17 08:09:10;;;;;;;0.10;0.10;;;4.90;99.90;;;;;;5072669;28;20012;-69
2022/01/17 08:11:36;;;;;;;0.00;0.00;;;4.90;99.90;;;;;;5072831;28;20040;-68
2022/01/17 08:14:02;;;;;;;0.10;0.10;;;5.10;99.90;;;;;;5076806;28;20028;-68
2022/01/17 08:16:27;;;;;;;0.10;0.10;;;5.00;99.90;;;;;;5053939;28;20459;-70
2022/01/17 08:18:53;;;;;;;0.10;0.10;;;5.00;99.90;;;;;;5071746;28;20020;-71
2022/01/17 08:21:19;;;;;;;0.10;0.10;;;5.00;99.90;;;;;;5069119;28;20024;-70
2022/01/17 08:23:45;;;;;;;0.10;0.10;;;5.00;99.90;;;;;;5072663;28;20529;-69
2022/01/17 08:26:11;;;;;;;0.20;0.20;;;5.10;99.90;;;;;;5061806;28;20047;-71
2022/01/17 08:28:37;;;;;;;0.00;0.00;;;5.10;99.90;;;;;;5050725;28;20422;-70
2022/01/17 08:31:03;;;;;;;0.10;0.10;;;5.10;99.90;;;;;;5070343;28;20056;-69
2022/01/17 08:33:29;;;;;;;0.03;0.03;;;5.10;99.90;;;;;;5069523;28;20663;-70
2022/01/17 08:35:55;;;;;;;0.10;0.10;;;5.10;99.90;;;;;;5068376;28;20112;-69
2022/01/17 08:38:20;;;;;;;0.10;0.10;;;5.10;99.90;;;;;;5066694;28;20466;-70
2022/01/17 08:40:46;;;;;;;0.10;0.10;;;4.60;99.90;;;;;;5068056;28;20028;-70
2022/01/17 08:43:12;;;;;;;0.10;0.10;;;5.10;99.90;;;;;;5063443;28;20459;-70
2022/01/17 08:45:38;;;;;;;0.10;0.10;;;5.10;99.90;;;;;;5068358;28;20106;-70
2022/01/17 08:48:04;;;;;;;0.10;0.10;;;5.10;99.90;;;;;;5070729;28;20020;-69
2022/01/17 08:50:30;;;;;;;0.10;0.10;;;5.00;99.90;;;;;;5064234;28;20051;-68
2022/01/17 08:52:56;;;;;;;0.20;0.20;;;5.00;99.90;;;;;;5049213;28;20075;-69
2022/01/17 08:55:22;;;;;;;0.10;0.10;;;5.10;99.90;;;;;;5064431;28;20048;-68
2022/01/17 08:57:48;;;;;;;0.43;0.43;;;5.10;99.90;;;;;;5059658;28;20576;-70
2022/01/17 09:00:17;;;;;;;0.03;0.03;;;5.10;99.90;;;;;;5066018;28;20023;-69
2022/01/17 09:02:43;;;;;;;1.08;1.08;;;5.10;99.90;;;;;;5065122;28;20021;-69
2022/01/17 09:05:09;;;;;;;0.57;0.57;;;5.10;99.90;;;;;;5069949;28;20032;-68
2022/01/17 09:07:35;;;;;;;0.10;0.10;;;5.20;99.90;;;;;;5069608;28;20056;-69
2022/01/17 09:10:01;;;;;;;0.10;0.10;;;5.30;99.90;;;;;;5069694;28;20068;-69
2022/01/17 09:12:27;;;;;;;0.55;0.43;;;5.40;99.90;;;;;;5067829;28;20036;-70
2022/01/17 09:14:52;;;;;;;0.10;0.10;;;5.40;99.90;;;;;;5066582;28;20016;-70
2022/01/17 09:17:18;;;;;;;0.10;0.10;;;5.50;99.90;;;;;;5064294;28;20033;-71
2022/01/17 09:19:46;;;;;;;0.10;0.10;;;5.60;99.90;;;;;;5048233;28;20037;-69
2022/01/17 09:22:11;;;;;;;0.10;0.10;;;5.70;99.90;;;;;;5066756;28;20524;-70
2022/01/17 09:24:38;;;;;;;0.05;0.05;;;5.70;99.90;;;;;;5068638;28;20590;-70
2022/01/17 09:27:06;;;;;;;1.08;1.00;;;5.80;99.90;;;;;;5070288;28;20025;-69
2022/01/17 09:29:33;;;;;;;0.10;0.10;;;5.80;99.90;;;;;;5065052;28;20024;-69
2022/01/17 09:31:59;;;;;;;0.13;0.13;;;5.90;99.90;;;;;;5069104;28;20040;-69
2022/01/17 09:34:25;;;;;;;0.10;0.10;;;5.80;99.90;;;;;;5069633;28;20056;-69
2022/01/17 09:36:52;;;;;;;0.10;0.10;;;5.90;99.90;;;;;;5068020;28;20015;-71
2022/01/17 09:39:19;;;;;;;0.10;0.10;;;6.00;99.90;;;;;;5066374;28;20017;-70
2022/01/17 09:41:45;;;;;;;0.10;0.10;;;6.10;99.90;;;;;;5067120;28;20016;-70
2022/01/17 09:44:11;;;;;;;1.58;1.48;;;6.10;99.90;;;;;;5070326;28;20497;-70
2022/01/17 09:46:42;;;;;;;0.10;0.10;;;6.10;99.90;;;;;;5063801;28;20033;-70
2022/01/17 09:54:27;;;;;;;0.00;0.00;;;6.20;99.90;;;;;;5069649;28;20060;-70
2022/01/17 09:56:58;;;;;;;0.47;0.47;;;6.30;99.90;;;;;;5067809;28;20032;-70
2022/01/17 09:59:24;;;;;;;0.10;0.10;;;6.30;99.90;;;;;;5069442;28;20029;-70
2022/01/17 10:01:50;;;;;;;0.10;0.10;;;6.40;99.90;;;;;;5069261;28;20023;-70
2022/01/17 10:04:17;;;;;;;0.10;0.10;;;6.40;99.90;;;;;;5068431;28;20475;-71
2022/01/17 10:06:55;;;;;;;0.10;0.10;;;6.50;99.90;;;;;;5070453;28;20031;-70
2022/01/17 10:09:22;;;;;;;0.10;0.10;;;6.50;99.90;;;;;;5062801;28;20093;-69
2022/01/17 10:12:11;;;;;;;0.10;0.10;;;6.60;99.90;;;;;;5050338;28;20089;-68
2022/01/17 10:14:43;;;;;;;11.02;4.97;;;6.70;99.90;;;;;;5066651;28;20050;-70
2022/01/17 10:17:11;;;;;;;0.10;0.10;;;6.80;99.90;;;;;;5067874;28;20067;-70
2022/01/17 10:19:39;;;;;;;0.10;0.10;;;6.80;99.90;;;;;;5068634;28;20028;-70
2022/01/17 10:22:18;;;;;;;0.10;0.10;;;6.90;99.90;;;;;;5066087;28;20078;-69
2022/01/17 10:25:15;;;;;;;0.32;0.32;;;6.90;99.90;;;;;;5075796;28;20386;-70
2022/01/17 10:35:37;;;;;;;0.10;0.10;;;6.90;99.90;;;;;;5065585;28;20035;-71
2022/01/17 10:38:07;;;;;;;0.10;0.10;;;6.80;99.90;;;;;;5060675;28;20024;-71
2022/01/17 10:40:37;;;;;;;0.10;0.10;;;6.90;99.90;;;;;;5061143;28;20028;-70
2022/01/17 10:43:05;;;;;;;0.03;0.03;;;6.90;99.90;;;;;;5044164;28;20035;-71
2022/01/17 10:45:38;;;;;;;0.10;0.10;;;6.90;99.90;;;;;;5064586;28;20088;-69
2022/01/17 10:48:04;;;;;;;1.08;1.00;;;7.00;99.90;;;;;;5065048;28;20056;-73
2022/01/17 10:50:33;;;;;;;0.10;0.10;;;7.00;99.90;;;;;;5066381;28;20059;-77
2022/01/17 10:53:02;;;;;;;0.10;0.10;;;6.90;99.90;;;;;;5067901;28;20478;-70
2022/01/17 10:55:40;;;;;;;0.00;0.00;;;6.80;99.90;;;;;;5071746;28;20037;-69
2022/01/17 10:58:09;;;;;;;0.00;0.00;;;6.70;99.90;;;;;;5071850;28;20031;-69
2022/01/17 11:00:37;;;;;;;0.10;0.10;;;6.60;99.90;;;;;;5050587;28;20037;-70
2022/01/17 11:03:09;;;;;;;0.10;0.10;;;6.60;99.90;;;;;;5054885;28;20120;-70
2022/01/17 11:05:39;;;;;;;0.32;0.32;;;6.60;99.90;;;;;;5072694;28;20027;-72
2022/01/17 11:08:06;;;;;;;0.10;0.10;;;6.50;99.90;;;;;;5072922;28;20087;-70
2022/01/17 11:10:37;;;;;;;0.10;0.10;;;6.50;99.90;;;;;;5070885;28;20021;-71
2022/01/17 11:13:06;;;;;;;0.10;0.10;;;6.40;99.90;;;;;;5095148;22;20052;-76
2022/01/17 11:15:33;;;;;;;0.10;0.10;;;6.50;99.90;;;;;;5094048;28;20093;-73
2022/01/17 11:18:16;;;;;;;0.10;0.10;;;6.60;99.90;;;;;;5092498;28;20034;-72
2022/01/17 11:20:41;;;;;;;0.10;0.10;;;6.60;99.90;;;;;;5080225;28;20113;-73
2022/01/17 11:23:07;;;;;;;0.10;0.10;;;6.60;99.90;;;;;;5092294;28;20514;-73
2022/01/17 11:25:37;;;;;;;0.10;0.10;;;6.50;99.90;;;;;;5092407;28;20034;-74
2022/01/17 11:28:05;;;;;;;0.20;0.20;;;6.40;99.90;;;;;;5085829;28;20242;-75
2022/01/17 11:30:34;;;;;;;0.10;0.10;;;6.50;99.90;;;;;;5092817;28;20020;-71
2022/01/17 11:33:04;;;;;;;0.00;0.00;;;6.40;99.90;;;;;;5095524;28;20086;-72
2022/01/17 11:35:31;;;;;;;0.00;0.00;;;6.30;99.90;;;;;;5096419;28;20023;-71
2022/01/17 11:37:59;;;;;;;0.10;0.10;;;6.30;99.90;;;;;;5075961;28;20106;-70
2022/01/17 11:40:33;;;;;;;0.35;0.35;;;6.60;99.90;;;;;;5097622;28;20098;-71
2022/01/17 11:43:00;;;;;;;0.10;0.10;;;6.10;99.90;;;;;;5095267;28;20516;-71
2022/01/17 11:45:29;;;;;;;0.10;0.10;;;6.10;99.90;;;;;;5094923;28;20024;-71
2022/01/17 11:48:01;;;;;;;0.10;0.10;;;6.10;99.90;;;;;;5095525;28;20020;-72
2022/01/17 11:50:34;;;;;;;0.10;0.10;;;6.10;99.90;;;;;;5075149;28;20455;-72
2022/01/17 11:53:23;;;;;;;0.10;0.10;;;6.10;99.90;;;;;;5085843;28;20032;-67
2022/01/17 11:55:50;;;;;;;0.22;0.22;;;5.90;99.90;;;;;;5073286;28;20050;-67
2022/01/17 11:58:24;;;;;;;0.10;0.10;;;5.80;99.90;;;;;;5085319;28;20020;-72
2022/01/17 12:00:59;;;;;;;0.80;0.80;;;5.90;99.90;;;;;;5088405;28;20034;-73
2022/01/17 12:03:49;;;;;;;0.10;0.10;;;5.90;99.90;;;;;;5088855;28;20035;-71
2022/01/17 12:06:32;;;;;;;0.10;0.10;;;6.10;99.90;;;;;;5086252;28;20061;-73
2022/01/17 12:09:24;;;;;;;;;;;6.30;99.90;;;;;;5085892;28;20421;-72
2022/01/17 12:12:03;;;;;;;0.03;0.03;;;6.70;99.90;;;;;;5088467;28;19919;-72
2022/01/17 12:14:40;;;;;;;0.10;0.10;;;6.40;99.90;;;;;;5082565;28;20028;-73
2022/01/17 12:17:29;;;;;;;0.10;0.10;;;6.40;99.90;;;;;;5083129;28;20063;-73
2022/01/17 12:20:03;;;;;;;0.10;0.10;;;6.40;99.90;;;;;;5079749;28;20036;-71
2022/01/17 12:22:57;;;;;;;0.10;0.10;;;6.50;99.90;;;;;;5083500;28;20046;-72
2022/01/17 12:25:31;;;;;;;0.00;0.00;;;6.40;99.90;;;;;;5082733;28;20470;-72
2022/01/17 12:28:03;;;;;;;0.10;0.10;;;6.50;99.90;;;;;;5081226;28;20114;-73
2022/01/17 12:30:56;;;;;;;0.10;0.10;;;6.70;99.90;;;;;;5083525;28;20092;-73
2022/01/17 12:33:27;;;;;;;0.10;0.10;;;6.70;99.90;;;;;;5089146;28;20023;-71
2022/01/17 12:35:54;;;;;;;0.00;0.00;;;6.60;99.90;;;;;;5088443;28;20028;-72
2022/01/17 12:38:35;;;;;;;0.10;0.10;;;6.50;99.90;;;;;;5089054;28;20024;-72
2022/01/17 12:41:01;;;;;;;0.10;0.10;;;6.30;99.90;;;;;;5086339;28;20020;-73
2022/01/17 12:43:31;;;;;;;0.10;0.10;;;6.30;99.90;;;;;;5089800;28;20066;-72
2022/01/17 12:46:10;;;;;;;0.20;0.20;;;6.30;99.90;;;;;;5070224;28;20034;-72
2022/01/17 12:48:38;;;;;;;0.10;0.10;;;6.20;99.90;;;;;;5082727;28;20027;-72
2022/01/17 12:51:07;;;;;;;0.03;0.03;;;6.30;99.90;;;;;;5084277;28;20106;-72
2022/01/17 12:53:35;;;;;;;0.10;0.10;;;6.40;99.90;;;;;;5084765;28;20028;-72
2022/01/17 12:56:06;;;;;;;0.10;0.10;;;5.90;99.90;;;;;;5066141;28;20389;-73
2022/01/17 12:58:36;;;;;;;0.10;0.10;;;6.40;99.90;;;;;;5086654;28;20093;-71
2022/01/17 13:01:20;;;;;;;0.10;0.10;;;6.20;99.90;;;;;;5087994;28;20030;-71
2022/01/17 13:03:47;;;;;;;0.10;0.10;;;6.30;99.90;;;;;;5086793;28;20538;-69
2022/01/17 13:06:17;;;;;;;0.10;0.10;;;6.30;99.90;;;;;;5068106;28;20106;-72
2022/01/17 13:08:45;;;;;;;0.10;0.10;;;6.40;99.90;;;;;;5091452;28;20169;-73
2022/01/17 13:11:24;;;;;;;0.00;0.00;;;6.60;99.90;;;;;;5085316;28;20039;-72
2022/01/17 13:14:01;;;;;;;0.00;0.00;;;6.40;99.90;;;;;;5089725;28;20484;-72
2022/01/17 13:16:34;;;;;;;0.10;0.10;;;6.40;99.90;;;;;;5071907;28;20032;-71
2022/01/17 13:19:00;;;;;;;0.08;0.08;;;6.40;99.90;;;;;;5086352;28;20024;-73
2022/01/17 13:21:27;;;;;;;0.10;0.10;;;6.40;99.90;;;;;;5086606;28;20186;-72
2022/01/17 13:24:02;;;;;;;0.10;0.10;;;6.50;99.90;;;;;;5085951;28;20020;-74
2022/01/17 13:26:35;;;;;;;0.10;0.10;;;6.50;99.90;;;;;;5086134;28;20082;-73
2022/01/17 13:29:03;;;;;;;0.10;0.10;;;6.40;99.90;;;;;;5073290;28;20088;-72
2022/01/17 13:31:31;;;;;;;0.10;0.10;;;6.40;99.90;;;;;;5073527;28;20023;-73